sensor_id;sensor_type;location;lat;lon;timestamp;pressure;altitude;pressure_sealevel;temperature;humidity
54453;BME280;40363;52.270;10.546;2023-02-22T00:00:44;77073.06;;;-147.06;100.00
54453;BME280;40363;52.270;10.546;2023-02-22T00:03:17;77085.41;;;-147.06;100.00
54453;BME280;40363;52.270;10.546;2023-02-22T00:05:54;77083.34;;;-147.06;100.00
54453;BME280;40363;52.270;10.546;2023-02-22T00:08:25;77085.41;;;-147.06;100.00
54453;BME280;40363;52.270;10.546;2023-02-22T00:10:56;77083.34;;;-147.06;100.00
54453;BME280;40363;52.270;10.546;2023-02-22T00:13:27;77079.22;;;-147.06;100.00
54453;BME280;40363;52.270;10.546;2023-02-22T00:16:03;77087.44;;;-147.06;100.00
54453;BME280;40363;52.270;10.546;2023-02-22T00:18:31;77095.69;;;-147.06;100.00
54453;BME280;40363;52.270;10.546;2023-02-22T00:21:12;77091.56;;;-147.06;100.00
54453;BME280;40363;52.270;10.546;2023-02-22T00:23:47;77097.72;;;-147.06;100.00
54453;BME280;40363;52.270;10.546;2023-02-22T00:26:20;77095.69;;;-147.06;100.00
54453;BME280;40363;52.270;10.546;2023-02-22T00:28:50;77083.34;;;-147.06;100.00
54453;BME280;40363;52.270;10.546;2023-02-22T00:31:18;77079.22;;;-147.06;100.00
54453;BME280;40363;52.270;10.546;2023-02-22T00:33:45;77068.94;;;-147.06;100.00
54453;BME280;40363;52.270;10.546;2023-02-22T00:36:12;77077.19;;;-147.06;100.00
54453;BME280;40363;52.270;10.546;2023-02-22T00:38:40;77077.19;;;-147.06;100.00
54453;BME280;40363;52.270;10.546;2023-02-22T00:41:07;77081.28;;;-147.06;100.00
54453;BME280;40363;52.270;10.546;2023-02-22T00:43:34;77091.56;;;-147.06;100.00
54453;BME280;40363;52.270;10.546;2023-02-22T00:46:02;77091.56;;;-147.06;100.00
54453;BME280;40363;52.270;10.546;2023-02-22T00:48:28;77099.78;;;-147.06;100.00
54453;BME280;40363;52.270;10.546;2023-02-22T00:50:55;77089.50;;;-147.06;100.00
54453;BME280;40363;52.270;10.546;2023-02-22T00:53:22;77085.41;;;-147.06;100.00
54453;BME280;40363;52.270;10.546;2023-02-22T00:55:50;77079.22;;;-147.06;100.00
54453;BME280;40363;52.270;10.546;2023-02-22T00:58:16;77073.06;;;-147.06;100.00
54453;BME280;40363;52.270;10.546;2023-02-22T01:00:44;77073.06;;;-147.06;100.00
54453;BME280;40363;52.270;10.546;2023-02-22T01:03:14;77068.94;;;-147.06;100.00
54453;BME280;40363;52.270;10.546;2023-02-22T01:05:41;77073.06;;;-147.06;100.00
54453;BME280;40363;52.270;10.546;2023-02-22T01:08:10;77068.94;;;-147.06;100.00
54453;BME280;40363;52.270;10.546;2023-02-22T01:10:38;77054.56;;;-147.06;100.00
54453;BME280;40363;52.270;10.546;2023-02-22T01:13:06;77064.84;;;-147.06;100.00
54453;BME280;40363;52.270;10.546;2023-02-22T01:15:37;77066.91;;;-147.06;100.00
54453;BME280;40363;52.270;10.546;2023-02-22T01:18:04;77062.78;;;-147.06;100.00
54453;BME280;40363;52.270;10.546;2023-02-22T01:20:32;77060.72;;;-147.06;100.00
54453;BME280;40363;52.270;10.546;2023-02-22T01:23:01;77062.78;;;-147.06;100.00
54453;BME280;40363;52.270;10.546;2023-02-22T01:25:31;77071.00;;;-147.06;100.00
54453;BME280;40363;52.270;10.546;2023-02-22T01:27:59;77085.41;;;-147.06;100.00
54453;BME280;40363;52.270;10.546;2023-02-22T01:30:29;77068.94;;;-147.06;100.00
54453;BME280;40363;52.270;10.546;2023-02-22T01:32:57;77081.28;;;-147.06;100.00
54453;BME280;40363;52.270;10.546;2023-02-22T01:35:25;77085.41;;;-147.06;100.00
54453;BME280;40363;52.270;10.546;2023-02-22T01:37:54;77089.50;;;-147.06;100.00
54453;BME280;40363;52.270;10.546;2023-02-22T01:40:25;77097.72;;;-147.06;100.00
54453;BME280;40363;52.270;10.546;2023-02-22T01:42:54;77101.84;;;-147.06;100.00
54453;BME280;40363;52.270;10.546;2023-02-22T01:45:42;77101.84;;;-147.06;100.00
54453;BME280;40363;52.270;10.546;2023-02-22T01:48:12;77105.94;;;-147.06;100.00
54453;BME280;40363;52.270;10.546;2023-02-22T01:50:44;77105.94;;;-147.06;100.00
54453;BME280;40363;52.270;10.546;2023-02-22T01:53:17;77145.00;;;-147.06;100.00
54453;BME280;40363;52.270;10.546;2023-02-22T01:55:45;77138.84;;;-147.06;100.00
54453;BME280;40363;52.270;10.546;2023-02-22T01:58:13;77132.69;;;-147.06;100.00
54453;BME280;40363;52.270;10.546;2023-02-22T02:00:42;77116.22;;;-147.06;100.00
54453;BME280;40363;52.270;10.546;2023-02-22T02:03:12;77132.69;;;-147.06;100.00
54453;BME280;40363;52.270;10.546;2023-02-22T02:05:40;77145.00;;;-147.06;100.00
54453;BME280;40363;52.270;10.546;2023-02-22T02:08:15;77124.44;;;-147.06;100.00
54453;BME280;40363;52.270;10.546;2023-02-22T02:10:44;77112.13;;;-147.06;100.00
54453;BME280;40363;52.270;10.546;2023-02-22T02:13:12;77110.06;;;-147.06;100.00
54453;BME280;40363;52.270;10.546;2023-02-22T02:15:40;77116.22;;;-147.06;100.00
54453;BME280;40363;52.270;10.546;2023-02-22T02:18:09;77114.19;;;-147.06;100.00
54453;BME280;40363;52.270;10.546;2023-02-22T02:20:53;77112.13;;;-147.06;100.00
54453;BME280;40363;52.270;10.546;2023-02-22T02:23:46;77136.78;;;-147.06;100.00
54453;BME280;40363;52.270;10.546;2023-02-22T02:26:40;77142.97;;;-147.06;100.00
54453;BME280;40363;52.270;10.546;2023-02-22T02:35:10;77157.34;;;-147.06;100.00
54453;BME280;40363;52.270;10.546;2023-02-22T02:37:47;77157.34;;;-147.06;100.00
54453;BME280;40363;52.270;10.546;2023-02-22T02:40:20;77177.91;;;-147.06;100.00
54453;BME280;40363;52.270;10.546;2023-02-22T02:42:54;77171.72;;;-147.06;100.00
54453;BME280;40363;52.270;10.546;2023-02-22T02:45:25;77167.63;;;-147.06;100.00
54453;BME280;40363;52.270;10.546;2023-02-22T02:47:58;77175.84;;;-147.06;100.00
54453;BME280;40363;52.270;10.546;2023-02-22T02:50:30;77175.84;;;-147.06;100.00
54453;BME280;40363;52.270;10.546;2023-02-22T02:53:01;77184.06;;;-147.06;100.00
54453;BME280;40363;52.270;10.546;2023-02-22T02:55:30;77204.63;;;-147.06;100.00
54453;BME280;40363;52.270;10.546;2023-02-22T02:58:01;77200.50;;;-147.06;100.00
54453;BME280;40363;52.270;10.546;2023-02-22T03:00:32;77202.56;;;-147.06;100.00
54453;BME280;40363;52.270;10.546;2023-02-22T03:03:21;77212.84;;;-147.06;100.00
54453;BME280;40363;52.270;10.546;2023-02-22T03:06:11;77208.75;;;-147.06;100.00
54453;BME280;40363;52.270;10.546;2023-02-22T03:08:47;77214.91;;;-147.06;100.00
54453;BME280;40363;52.270;10.546;2023-02-22T03:11:19;77221.06;;;-147.06;100.00
54453;BME280;40363;52.270;10.546;2023-02-22T03:13:50;77231.34;;;-147.06;100.00
54453;BME280;40363;52.270;10.546;2023-02-22T03:16:28;77229.28;;;-147.06;100.00
54453;BME280;40363;52.270;10.546;2023-02-22T03:19:04;77223.13;;;-147.06;100.00
54453;BME280;40363;52.270;10.546;2023-02-22T03:21:40;77223.13;;;-147.06;100.00
54453;BME280;40363;52.270;10.546;2023-02-22T03:24:16;77225.19;;;-147.06;100.00
54453;BME280;40363;52.270;10.546;2023-02-22T03:26:48;77223.13;;;-147.06;100.00
54453;BME280;40363;52.270;10.546;2023-02-22T03:29:19;77227.25;;;-147.06;100.00
54453;BME280;40363;52.270;10.546;2023-02-22T03:31:52;77229.28;;;-147.06;100.00
54453;BME280;40363;52.270;10.546;2023-02-22T03:34:25;77235.47;;;-147.06;100.00
54453;BME280;40363;52.270;10.546;2023-02-22T03:36:56;77241.63;;;-147.06;100.00
54453;BME280;40363;52.270;10.546;2023-02-22T03:39:25;77237.53;;;-147.06;100.00
54453;BME280;40363;52.270;10.546;2023-02-22T03:41:57;77253.97;;;-147.06;100.00
54453;BME280;40363;52.270;10.546;2023-02-22T03:44:30;77262.19;;;-147.06;100.00
54453;BME280;40363;52.270;10.546;2023-02-22T03:47:05;77270.41;;;-147.06;100.00
54453;BME280;40363;52.270;10.546;2023-02-22T03:49:36;77262.19;;;-147.06;100.00
54453;BME280;40363;52.270;10.546;2023-02-22T03:52:05;77276.56;;;-147.06;100.00
54453;BME280;40363;52.270;10.546;2023-02-22T03:54:32;77284.81;;;-147.06;100.00
54453;BME280;40363;52.270;10.546;2023-02-22T03:57:05;77280.69;;;-147.06;100.00
54453;BME280;40363;52.270;10.546;2023-02-22T03:59:33;77290.97;;;-147.06;100.00
54453;BME280;40363;52.270;10.546;2023-02-22T04:02:00;77301.25;;;-147.06;100.00
54453;BME280;40363;52.270;10.546;2023-02-22T04:04:27;77282.75;;;-147.06;100.00
54453;BME280;40363;52.270;10.546;2023-02-22T04:06:55;77299.19;;;-147.06;100.00
54453;BME280;40363;52.270;10.546;2023-02-22T04:09:22;77301.25;;;-147.06;100.00
54453;BME280;40363;52.270;10.546;2023-02-22T04:11:48;77303.31;;;-147.06;100.00
54453;BME280;40363;52.270;10.546;2023-02-22T04:14:15;77297.13;;;-147.06;100.00
54453;BME280;40363;52.270;10.546;2023-02-22T04:16:42;77293.03;;;-147.06;100.00
54453;BME280;40363;52.270;10.546;2023-02-22T04:19:08;77299.19;;;-147.06;100.00
54453;BME280;40363;52.270;10.546;2023-02-22T04:21:35;77290.97;;;-147.06;100.00
54453;BME280;40363;52.270;10.546;2023-02-22T04:24:03;77286.84;;;-147.06;100.00
54453;BME280;40363;52.270;10.546;2023-02-22T04:26:30;77288.91;;;-147.06;100.00
54453;BME280;40363;52.270;10.546;2023-02-22T04:28:57;77282.75;;;-147.06;100.00
54453;BME280;40363;52.270;10.546;2023-02-22T04:31:23;77293.03;;;-147.06;100.00
54453;BME280;40363;52.270;10.546;2023-02-22T04:33:50;77290.97;;;-147.06;100.00
54453;BME280;40363;52.270;10.546;2023-02-22T04:36:16;77290.97;;;-147.06;100.00
54453;BME280;40363;52.270;10.546;2023-02-22T04:38:43;77295.06;;;-147.06;100.00
54453;BME280;40363;52.270;10.546;2023-02-22T04:41:11;77286.84;;;-147.06;100.00
54453;BME280;40363;52.270;10.546;2023-02-22T04:43:37;77299.19;;;-147.06;100.00
54453;BME280;40363;52.270;10.546;2023-02-22T04:46:04;77303.31;;;-147.06;100.00
54453;BME280;40363;52.270;10.546;2023-02-22T04:48:31;77299.19;;;-147.06;100.00
54453;BME280;40363;52.270;10.546;2023-02-22T04:50:57;77297.13;;;-147.06;100.00
54453;BME280;40363;52.270;10.546;2023-02-22T04:53:24;77303.31;;;-147.06;100.00
54453;BME280;40363;52.270;10.546;2023-02-22T04:55:51;77303.31;;;-147.06;100.00
54453;BME280;40363;52.270;10.546;2023-02-22T04:58:19;77297.13;;;-147.06;100.00
54453;BME280;40363;52.270;10.546;2023-02-22T05:00:45;77299.19;;;-147.06;100.00
54453;BME280;40363;52.270;10.546;2023-02-22T05:03:12;77290.97;;;-147.06;100.00
54453;BME280;40363;52.270;10.546;2023-02-22T05:05:39;77278.63;;;-147.06;100.00
54453;BME280;40363;52.270;10.546;2023-02-22T05:08:05;77280.69;;;-147.06;100.00
54453;BME280;40363;52.270;10.546;2023-02-22T05:10:32;77268.34;;;-147.06;100.00
54453;BME280;40363;52.270;10.546;2023-02-22T05:12:59;77286.84;;;-147.06;100.00
54453;BME280;40363;52.270;10.546;2023-02-22T05:15:27;77286.84;;;-147.06;100.00
54453;BME280;40363;52.270;10.546;2023-02-22T05:17:53;77286.84;;;-147.06;100.00
54453;BME280;40363;52.270;10.546;2023-02-22T05:20:22;77282.75;;;-147.06;100.00
54453;BME280;40363;52.270;10.546;2023-02-22T05:22:49;77288.91;;;-147.06;100.00
54453;BME280;40363;52.270;10.546;2023-02-22T05:25:16;77290.97;;;-147.06;100.00
54453;BME280;40363;52.270;10.546;2023-02-22T05:27:48;77293.03;;;-147.06;100.00
54453;BME280;40363;52.270;10.546;2023-02-22T05:30:15;77297.13;;;-147.06;100.00
54453;BME280;40363;52.270;10.546;2023-02-22T05:32:43;77295.06;;;-147.06;100.00
54453;BME280;40363;52.270;10.546;2023-02-22T05:35:10;77297.13;;;-147.06;100.00
54453;BME280;40363;52.270;10.546;2023-02-22T05:37:37;77295.06;;;-147.06;100.00
54453;BME280;40363;52.270;10.546;2023-02-22T05:40:04;77290.97;;;-147.06;100.00
54453;BME280;40363;52.270;10.546;2023-02-22T05:42:32;77293.03;;;-147.06;100.00
54453;BME280;40363;52.270;10.546;2023-02-22T05:44:58;77299.19;;;-147.06;100.00
54453;BME280;40363;52.270;10.546;2023-02-22T05:47:25;77303.31;;;-147.06;100.00
54453;BME280;40363;52.270;10.546;2023-02-22T05:49:53;77309.47;;;-147.06;100.00
54453;BME280;40363;52.270;10.546;2023-02-22T05:52:20;77311.53;;;-147.06;100.00
54453;BME280;40363;52.270;10.546;2023-02-22T05:54:46;77319.75;;;-147.06;100.00
54453;BME280;40363;52.270;10.546;2023-02-22T05:57:13;77336.19;;;-147.06;100.00
54453;BME280;40363;52.270;10.546;2023-02-22T05:59:40;77338.25;;;-147.06;100.00
54453;BME280;40363;52.270;10.546;2023-02-22T06:02:07;77332.09;;;-147.06;100.00
54453;BME280;40363;52.270;10.546;2023-02-22T06:04:33;77336.19;;;-147.06;100.00
54453;BME280;40363;52.270;10.546;2023-02-22T06:07:01;77342.38;;;-147.06;100.00
54453;BME280;40363;52.270;10.546;2023-02-22T06:09:28;77336.19;;;-147.06;100.00
54453;BME280;40363;52.270;10.546;2023-02-22T06:11:54;77342.38;;;-147.06;100.00
54453;BME280;40363;52.270;10.546;2023-02-22T06:14:21;77348.53;;;-147.06;100.00
54453;BME280;40363;52.270;10.546;2023-02-22T06:16:51;77348.53;;;-147.06;100.00
54453;BME280;40363;52.270;10.546;2023-02-22T06:19:18;77354.69;;;-147.06;100.00
54453;BME280;40363;52.270;10.546;2023-02-22T06:21:48;77348.53;;;-147.06;100.00
54453;BME280;40363;52.270;10.546;2023-02-22T06:24:17;77352.66;;;-147.06;100.00
54453;BME280;40363;52.270;10.546;2023-02-22T06:26:44;77350.59;;;-147.06;100.00
54453;BME280;40363;52.270;10.546;2023-02-22T06:29:10;77340.31;;;-147.06;100.00
54453;BME280;40363;52.270;10.546;2023-02-22T06:31:37;77332.09;;;-147.06;100.00
54453;BME280;40363;52.270;10.546;2023-02-22T06:34:04;77323.88;;;-147.06;100.00
54453;BME280;40363;52.270;10.546;2023-02-22T06:36:30;77311.53;;;-147.06;100.00
54453;BME280;40363;52.270;10.546;2023-02-22T06:38:57;77303.31;;;-147.06;100.00
54453;BME280;40363;52.270;10.546;2023-02-22T06:41:25;77290.97;;;-147.06;100.00
54453;BME280;40363;52.270;10.546;2023-02-22T06:43:52;77282.75;;;-147.06;100.00
54453;BME280;40363;52.270;10.546;2023-02-22T06:46:18;77276.56;;;-147.06;100.00
54453;BME280;40363;52.270;10.546;2023-02-22T06:48:46;77274.53;;;-147.06;100.00
54453;BME280;40363;52.270;10.546;2023-02-22T06:51:14;77284.81;;;-147.06;100.00
54453;BME280;40363;52.270;10.546;2023-02-22T06:53:41;77282.75;;;-147.06;100.00
54453;BME280;40363;52.270;10.546;2023-02-22T06:56:08;77293.03;;;-147.06;100.00
54453;BME280;40363;52.270;10.546;2023-02-22T06:58:36;77284.81;;;-147.06;100.00
54453;BME280;40363;52.270;10.546;2023-02-22T07:01:03;77278.63;;;-147.06;100.00
54453;BME280;40363;52.270;10.546;2023-02-22T07:03:33;77278.63;;;-147.06;100.00
54453;BME280;40363;52.270;10.546;2023-02-22T07:06:00;77270.41;;;-147.06;100.00
54453;BME280;40363;52.270;10.546;2023-02-22T07:08:28;77262.19;;;-147.06;100.00
54453;BME280;40363;52.270;10.546;2023-02-22T07:10:55;77245.75;;;-147.06;100.00
54453;BME280;40363;52.270;10.546;2023-02-22T07:13:22;77235.47;;;-147.06;100.00
54453;BME280;40363;52.270;10.546;2023-02-22T07:15:50;77225.19;;;-147.06;100.00
54453;BME280;40363;52.270;10.546;2023-02-22T07:18:17;77212.84;;;-147.06;100.00
54453;BME280;40363;52.270;10.546;2023-02-22T07:20:44;77212.84;;;-147.06;100.00
54453;BME280;40363;52.270;10.546;2023-02-22T07:23:13;77204.63;;;-147.06;100.00
54453;BME280;40363;52.270;10.546;2023-02-22T07:25:40;77200.50;;;-147.06;100.00
54453;BME280;40363;52.270;10.546;2023-02-22T07:28:06;77182.00;;;-147.06;100.00
54453;BME280;40363;52.270;10.546;2023-02-22T07:30:35;77175.84;;;-147.06;100.00
54453;BME280;40363;52.270;10.546;2023-02-22T07:33:05;77171.72;;;-147.06;100.00
54453;BME280;40363;52.270;10.546;2023-02-22T07:35:34;77167.63;;;-147.06;100.00
54453;BME280;40363;52.270;10.546;2023-02-22T07:38:02;77163.50;;;-147.06;100.00
54453;BME280;40363;52.270;10.546;2023-02-22T07:40:30;77149.13;;;-147.06;100.00
54453;BME280;40363;52.270;10.546;2023-02-22T07:42:59;77130.63;;;-147.06;100.00
54453;BME280;40363;52.270;10.546;2023-02-22T07:45:27;77112.13;;;-147.06;100.00
54453;BME280;40363;52.270;10.546;2023-02-22T07:47:55;77105.94;;;-147.06;100.00
54453;BME280;40363;52.270;10.546;2023-02-22T07:50:24;77089.50;;;-147.06;100.00
54453;BME280;40363;52.270;10.546;2023-02-22T07:52:53;77056.63;;;-147.06;100.00
54453;BME280;40363;52.270;10.546;2023-02-22T07:55:21;77007.28;;;-147.06;99.30
54453;BME280;40363;52.270;10.546;2023-02-22T07:57:50;76992.88;;;-147.06;98.78
54453;BME280;40363;52.270;10.546;2023-02-22T08:00:21;76982.63;;;-147.06;98.63
54453;BME280;40363;52.270;10.546;2023-02-22T08:02:48;76964.13;;;-147.06;98.88
54453;BME280;40363;52.270;10.546;2023-02-22T08:05:15;76939.44;;;-147.06;98.58
54453;BME280;40363;52.270;10.546;2023-02-22T08:07:43;76912.72;;;-147.06;97.12
54453;BME280;40363;52.270;10.546;2023-02-22T08:10:12;76914.78;;;-147.06;96.40
54453;BME280;40363;52.270;10.546;2023-02-22T08:12:39;76846.94;;;-147.06;95.55
54453;BME280;40363;52.270;10.546;2023-02-22T08:15:08;76826.38;;;-147.06;93.93
54453;BME280;40363;52.270;10.546;2023-02-22T08:17:35;76836.66;;;-147.06;92.98
54453;BME280;40363;52.270;10.546;2023-02-22T08:20:03;76861.34;;;-147.06;92.95
54453;BME280;40363;52.270;10.546;2023-02-22T08:22:29;76744.16;;;-147.06;90.11
54453;BME280;40363;52.270;10.546;2023-02-22T08:24:57;76719.50;;;-147.06;87.66
54453;BME280;40363;52.270;10.546;2023-02-22T08:27:25;76688.66;;;-147.06;85.79
54453;BME280;40363;52.270;10.546;2023-02-22T08:29:53;76620.84;;;-147.06;84.82
54453;BME280;40363;52.270;10.546;2023-02-22T08:32:20;76596.19;;;-147.06;84.13
54453;BME280;40363;52.270;10.546;2023-02-22T08:34:47;76571.50;;;-147.06;83.61
54453;BME280;40363;52.270;10.546;2023-02-22T08:37:14;76647.56;;;-147.06;84.47
54453;BME280;40363;52.270;10.546;2023-02-22T08:39:41;76641.41;;;-147.06;84.94
54453;BME280;40363;52.270;10.546;2023-02-22T08:42:09;76657.84;;;-147.06;83.99
54453;BME280;40363;52.270;10.546;2023-02-22T08:44:37;76664.00;;;-147.06;84.16
54453;BME280;40363;52.270;10.546;2023-02-22T08:47:05;76637.28;;;-147.06;83.51
54453;BME280;40363;52.270;10.546;2023-02-22T08:49:32;76620.84;;;-147.06;82.64
54453;BME280;40363;52.270;10.546;2023-02-22T08:51:59;76528.34;;;-147.06;80.05
54453;BME280;40363;52.270;10.546;2023-02-22T08:54:26;76460.53;;;-147.06;79.07
54453;BME280;40363;52.270;10.546;2023-02-22T08:56:52;76522.19;;;-147.06;78.96
54453;BME280;40363;52.270;10.546;2023-02-22T08:59:21;76468.75;;;-147.06;76.96
54453;BME280;40363;52.270;10.546;2023-02-22T09:01:47;76493.41;;;-147.06;77.57
54453;BME280;40363;52.270;10.546;2023-02-22T09:04:14;76481.06;;;-147.06;76.47
54453;BME280;40363;52.270;10.546;2023-02-22T09:06:41;76561.22;;;-147.06;80.56
54453;BME280;40363;52.270;10.546;2023-02-22T09:09:12;76489.28;;;-147.06;79.66
54453;BME280;40363;52.270;10.546;2023-02-22T09:11:39;76544.78;;;-147.06;79.94
54453;BME280;40363;52.270;10.546;2023-02-22T09:14:05;76536.56;;;-147.06;80.24
54453;BME280;40363;52.270;10.546;2023-02-22T09:16:33;76460.53;;;-147.06;79.69
54453;BME280;40363;52.270;10.546;2023-02-22T09:19:02;76538.63;;;-147.06;80.66
54453;BME280;40363;52.270;10.546;2023-02-22T09:21:29;76563.28;;;-147.06;82.15
54453;BME280;40363;52.270;10.546;2023-02-22T09:23:55;76427.63;;;-147.06;79.28
54453;BME280;40363;52.270;10.546;2023-02-22T09:26:22;76497.50;;;-147.06;80.04
54453;BME280;40363;52.270;10.546;2023-02-22T09:28:49;76497.50;;;-147.06;79.65
54453;BME280;40363;52.270;10.546;2023-02-22T09:31:16;76448.19;;;-147.06;78.76
54453;BME280;40363;52.270;10.546;2023-02-22T09:33:44;76409.13;;;-147.06;78.31
54453;BME280;40363;52.270;10.546;2023-02-22T09:36:10;76388.59;;;-147.06;78.03
54453;BME280;40363;52.270;10.546;2023-02-22T09:38:37;76380.34;;;-147.06;76.37
54453;BME280;40363;52.270;10.546;2023-02-22T09:41:10;76437.91;;;-147.06;78.59
54453;BME280;40363;52.270;10.546;2023-02-22T09:43:44;76472.84;;;-147.06;79.81
54453;BME280;40363;52.270;10.546;2023-02-22T09:46:22;76349.53;;;-147.06;76.91
54453;BME280;40363;52.270;10.546;2023-02-22T09:49:02;76345.41;;;-147.06;76.11
54453;BME280;40363;52.270;10.546;2023-02-22T09:51:36;76450.25;;;-147.06;78.41
54453;BME280;40363;52.270;10.546;2023-02-22T09:54:12;76423.53;;;-147.06;77.68
54453;BME280;40363;52.270;10.546;2023-02-22T09:56:43;76402.97;;;-147.06;76.55
54453;BME280;40363;52.270;10.546;2023-02-22T09:59:14;76448.19;;;-147.06;78.35
54453;BME280;40363;52.270;10.546;2023-02-22T10:01:46;76419.41;;;-147.06;78.48
54453;BME280;40363;52.270;10.546;2023-02-22T10:04:18;76380.34;;;-147.06;78.03
54453;BME280;40363;52.270;10.546;2023-02-22T10:06:57;76419.41;;;-147.06;77.39
54453;BME280;40363;52.270;10.546;2023-02-22T10:09:31;76415.31;;;-147.06;78.31
54453;BME280;40363;52.270;10.546;2023-02-22T10:12:05;76333.09;;;-147.06;76.50
54453;BME280;40363;52.270;10.546;2023-02-22T10:14:58;76339.25;;;-147.06;76.68
54453;BME280;40363;52.270;10.546;2023-02-22T10:17:35;76294.03;;;-147.06;75.55
54453;BME280;40363;52.270;10.546;2023-02-22T10:20:18;76298.16;;;-147.06;75.96
54453;BME280;40363;52.270;10.546;2023-02-22T10:22:54;76333.09;;;-147.06;75.30
54453;BME280;40363;52.270;10.546;2023-02-22T10:25:25;76318.69;;;-147.06;76.09
54453;BME280;40363;52.270;10.546;2023-02-22T10:27:55;76347.47;;;-147.06;77.52
54453;BME280;40363;52.270;10.546;2023-02-22T10:30:26;76405.03;;;-147.06;78.72
54453;BME280;40363;52.270;10.546;2023-02-22T10:33:00;76361.84;;;-147.06;77.96
54453;BME280;40363;52.270;10.546;2023-02-22T10:35:34;76291.97;;;-147.06;75.46
54453;BME280;40363;52.270;10.546;2023-02-22T10:38:14;76248.81;;;-147.06;75.14
54453;BME280;40363;52.270;10.546;2023-02-22T10:40:45;76250.88;;;-147.06;74.65
54453;BME280;40363;52.270;10.546;2023-02-22T10:43:13;76328.97;;;-147.06;77.14
54453;BME280;40363;52.270;10.546;2023-02-22T10:45:40;76306.38;;;-147.06;75.14
54453;BME280;40363;52.270;10.546;2023-02-22T10:48:09;76316.66;;;-147.06;76.32
54453;BME280;40363;52.270;10.546;2023-02-22T10:50:41;76308.44;;;-147.06;75.75
54453;BME280;40363;52.270;10.546;2023-02-22T10:53:09;76289.94;;;-147.06;75.88
54453;BME280;40363;52.270;10.546;2023-02-22T10:56:06;76289.94;;;-147.06;76.24
54453;BME280;40363;52.270;10.546;2023-02-22T10:58:45;76298.16;;;-147.06;76.36
54453;BME280;40363;52.270;10.546;2023-02-22T11:01:22;76271.44;;;-147.06;75.76
54453;BME280;40363;52.270;10.546;2023-02-22T11:04:08;76289.94;;;-147.06;76.34
54453;BME280;40363;52.270;10.546;2023-02-22T11:06:39;76365.97;;;-147.06;78.02
54453;BME280;40363;52.270;10.546;2023-02-22T11:09:11;76372.13;;;-147.06;79.29
54453;BME280;40363;52.270;10.546;2023-02-22T11:11:40;76322.81;;;-147.06;79.38
54453;BME280;40363;52.270;10.546;2023-02-22T11:14:09;76265.25;;;-147.06;77.36
54453;BME280;40363;52.270;10.546;2023-02-22T11:16:38;76226.22;;;-147.06;77.06
54453;BME280;40363;52.270;10.546;2023-02-22T11:19:17;76246.75;;;-147.06;77.16
54453;BME280;40363;52.270;10.546;2023-02-22T11:21:46;76259.09;;;-147.06;77.67
54453;BME280;40363;52.270;10.546;2023-02-22T11:24:17;76259.09;;;-147.06;77.75
54453;BME280;40363;52.270;10.546;2023-02-22T11:26:46;76289.94;;;-147.06;78.96
54453;BME280;40363;52.270;10.546;2023-02-22T11:29:19;76314.59;;;-147.06;80.20
54453;BME280;40363;52.270;10.546;2023-02-22T11:31:47;76349.53;;;-147.06;80.53
54453;BME280;40363;52.270;10.546;2023-02-22T11:34:27;76333.09;;;-147.06;81.28
54453;BME280;40363;52.270;10.546;2023-02-22T11:36:56;76328.97;;;-147.06;80.58
54453;BME280;40363;52.270;10.546;2023-02-22T11:39:39;76337.19;;;-147.06;81.22
54453;BME280;40363;52.270;10.546;2023-02-22T11:42:17;76265.25;;;-147.06;80.38
54453;BME280;40363;52.270;10.546;2023-02-22T11:44:46;76302.25;;;-147.06;80.93
54453;BME280;40363;52.270;10.546;2023-02-22T11:47:14;76320.75;;;-147.06;82.59
54453;BME280;40363;52.270;10.546;2023-02-22T11:49:42;76333.09;;;-147.06;82.67
54453;BME280;40363;52.270;10.546;2023-02-22T11:52:17;76343.38;;;-147.06;83.08
54453;BME280;40363;52.270;10.546;2023-02-22T11:55:08;76318.69;;;-147.06;82.35
54453;BME280;40363;52.270;10.546;2023-02-22T11:57:54;76310.47;;;-147.06;82.36
54453;BME280;40363;52.270;10.546;2023-02-22T12:00:32;76300.19;;;-147.06;81.62
54453;BME280;40363;52.270;10.546;2023-02-22T12:03:16;76298.16;;;-147.06;82.16
54453;BME280;40363;52.270;10.546;2023-02-22T12:06:01;76285.81;;;-147.06;81.81
54453;BME280;40363;52.270;10.546;2023-02-22T12:08:39;76259.09;;;-147.06;81.55
54453;BME280;40363;52.270;10.546;2023-02-22T12:11:13;76222.09;;;-147.06;80.69
54453;BME280;40363;52.270;10.546;2023-02-22T12:13:53;76230.31;;;-147.06;81.58
54453;BME280;40363;52.270;10.546;2023-02-22T12:16:27;76246.75;;;-147.06;82.46
54453;BME280;40363;52.270;10.546;2023-02-22T12:19:09;76236.50;;;-147.06;82.17
54453;BME280;40363;52.270;10.546;2023-02-22T12:21:42;76207.72;;;-147.06;80.73
54453;BME280;40363;52.270;10.546;2023-02-22T12:24:15;76176.88;;;-147.06;80.59
54453;BME280;40363;52.270;10.546;2023-02-22T12:26:45;76205.66;;;-147.06;79.90
54453;BME280;40363;52.270;10.546;2023-02-22T12:29:19;76207.72;;;-147.06;80.10
54453;BME280;40363;52.270;10.546;2023-02-22T12:31:51;76209.78;;;-147.06;80.68
54453;BME280;40363;52.270;10.546;2023-02-22T12:34:26;76220.03;;;-147.06;80.77
54453;BME280;40363;52.270;10.546;2023-02-22T12:36:58;76226.22;;;-147.06;80.46
54453;BME280;40363;52.270;10.546;2023-02-22T12:39:38;76187.16;;;-147.06;79.71
54453;BME280;40363;52.270;10.546;2023-02-22T12:42:12;76152.22;;;-147.06;79.39
54453;BME280;40363;52.270;10.546;2023-02-22T12:44:43;76107.00;;;-147.06;77.96